createdAt,value
2022-09-28T00:00:17.490Z,936.89
2022-09-28T00:01:17.507Z,936.88
2022-09-28T00:02:17.693Z,936.87
2022-09-28T00:03:17.532Z,936.87
2022-09-28T00:04:17.543Z,936.83
2022-09-28T00:05:17.557Z,936.82
2022-09-28T00:06:17.572Z,936.78
2022-09-28T00:07:17.585Z,936.76
2022-09-28T00:08:17.598Z,936.73
2022-09-28T00:09:17.691Z,936.73
2022-09-28T00:10:17.624Z,936.70
2022-09-28T00:11:17.637Z,936.70
2022-09-28T00:12:17.651Z,936.65
2022-09-28T00:13:17.683Z,936.65
2022-09-28T00:14:17.679Z,936.70
2022-09-28T00:15:17.690Z,936.71
2022-09-28T00:16:17.745Z,936.72
2022-09-28T00:17:17.717Z,936.71
2022-09-28T00:18:17.732Z,936.73
2022-09-28T00:19:18.029Z,936.76
2022-09-28T00:20:18.170Z,936.74
2022-09-28T00:21:17.770Z,936.74
2022-09-28T00:22:17.784Z,936.75
2022-09-28T00:23:17.799Z,936.79
2022-09-28T00:24:17.809Z,936.77
2022-09-28T00:25:17.832Z,936.81
2022-09-28T00:26:17.836Z,936.81
2022-09-28T00:27:17.849Z,936.82
2022-09-28T00:28:17.864Z,936.84
2022-09-28T00:29:18.147Z,936.88
2022-09-28T00:30:17.889Z,936.87
2022-09-28T00:31:17.954Z,936.90
2022-09-28T00:32:17.914Z,936.84
2022-09-28T00:33:17.951Z,936.86
2022-09-28T00:34:17.942Z,936.86
2022-09-28T00:35:17.955Z,936.80
2022-09-28T00:36:17.969Z,936.78
2022-09-28T00:37:17.981Z,936.77
2022-09-28T00:38:17.998Z,936.71
2022-09-28T00:39:18.115Z,936.66
2022-09-28T00:40:18.073Z,936.68
2022-09-28T00:41:18.034Z,936.67
2022-09-28T00:42:18.047Z,936.68
2022-09-28T00:43:18.060Z,936.65
2022-09-28T00:44:18.072Z,936.65
2022-09-28T00:45:18.107Z,936.70
2022-09-28T00:46:18.221Z,936.78
2022-09-28T00:47:18.113Z,936.76
2022-09-28T00:48:18.128Z,936.78
2022-09-28T00:49:18.321Z,936.86
2022-09-28T00:50:18.154Z,936.89
2022-09-28T00:51:18.165Z,936.94
2022-09-28T00:52:18.178Z,936.96
2022-09-28T00:53:18.192Z,936.93
2022-09-28T00:54:18.205Z,936.90
2022-09-28T00:55:18.229Z,936.93
2022-09-28T00:56:18.232Z,936.93
2022-09-28T00:57:18.246Z,936.94
2022-09-28T00:58:18.258Z,936.94
2022-09-28T00:59:18.326Z,937.01
2022-09-28T01:00:18.283Z,937.01
2022-09-28T01:01:18.388Z,936.99
2022-09-28T01:02:18.335Z,936.96
2022-09-28T01:03:18.318Z,936.96
2022-09-28T01:04:18.334Z,936.94
2022-09-28T01:05:18.348Z,936.96
2022-09-28T01:06:18.358Z,936.93
2022-09-28T01:07:18.371Z,936.88
2022-09-28T01:08:18.384Z,936.85
2022-09-28T01:09:18.454Z,936.83
2022-09-28T01:10:18.412Z,936.79
2022-09-28T01:11:18.425Z,936.73
2022-09-28T01:12:18.438Z,936.72
2022-09-28T01:13:18.452Z,936.73
2022-09-28T01:14:18.464Z,936.71
2022-09-28T01:15:18.476Z,936.75
2022-09-28T01:16:18.507Z,936.73
2022-09-28T01:17:18.525Z,936.70
2022-09-28T01:18:18.518Z,936.71
2022-09-28T01:19:18.608Z,936.69
2022-09-28T01:20:18.546Z,936.66
2022-09-28T01:21:18.556Z,936.66
2022-09-28T01:22:18.569Z,936.65
2022-09-28T01:23:18.582Z,936.64
2022-09-28T01:24:18.595Z,936.57
2022-09-28T01:25:19.217Z,936.57
2022-09-28T01:26:18.624Z,936.54
2022-09-28T01:27:18.636Z,936.55
2022-09-28T01:28:18.650Z,936.50
2022-09-28T01:29:18.806Z,936.53
2022-09-28T01:30:18.674Z,936.50
2022-09-28T01:31:18.734Z,936.51
2022-09-28T01:32:18.703Z,936.49
2022-09-28T01:33:18.732Z,936.42
2022-09-28T01:34:18.729Z,936.39
2022-09-28T01:35:18.739Z,936.36
2022-09-28T01:36:18.755Z,936.33
2022-09-28T01:37:18.768Z,936.31
2022-09-28T01:38:18.782Z,936.27
2022-09-28T01:39:18.793Z,936.25
2022-09-28T01:40:18.844Z,936.19
2022-09-28T01:41:18.818Z,936.21
2022-09-28T01:42:18.833Z,936.21
2022-09-28T01:43:18.844Z,936.20
2022-09-28T01:44:18.859Z,936.19
2022-09-28T01:45:18.871Z,936.16
2022-09-28T01:46:18.926Z,936.14
2022-09-28T01:47:18.897Z,936.14
2022-09-28T01:48:18.912Z,936.14
2022-09-28T01:49:19.103Z,936.12
2022-09-28T01:50:18.938Z,936.09
2022-09-28T01:51:18.951Z,936.07
2022-09-28T01:52:18.963Z,936.05
2022-09-28T01:53:18.979Z,936.03
2022-09-28T01:54:18.991Z,936.04
2022-09-28T01:55:19.003Z,936.05
2022-09-28T01:56:19.014Z,936.09
2022-09-28T01:57:19.038Z,936.13
2022-09-28T01:58:19.042Z,936.10
2022-09-28T01:59:19.059Z,936.10
2022-09-28T02:00:19.067Z,936.11
2022-09-28T02:01:19.146Z,936.13
2022-09-28T02:02:19.157Z,936.17
2022-09-28T02:03:19.105Z,936.16
2022-09-28T02:04:19.119Z,936.17
2022-09-28T02:05:19.156Z,936.21
2022-09-28T02:06:19.146Z,936.22
2022-09-28T02:07:19.160Z,936.24
2022-09-28T02:08:19.174Z,936.23
2022-09-28T02:09:19.186Z,936.18
2022-09-28T02:10:19.202Z,936.14
2022-09-28T02:11:19.212Z,936.09
2022-09-28T02:12:19.229Z,936.08
2022-09-28T02:13:19.237Z,936.09
2022-09-28T02:14:19.250Z,936.04
2022-09-28T02:15:19.264Z,936.03
2022-09-28T02:16:19.326Z,936.01
2022-09-28T02:17:19.290Z,935.99
2022-09-28T02:18:19.302Z,935.99
2022-09-28T02:19:19.319Z,935.97
2022-09-28T02:20:19.328Z,935.95
2022-09-28T02:21:19.363Z,935.95
2022-09-28T02:22:19.356Z,935.95
2022-09-28T02:23:19.369Z,935.94
2022-09-28T02:24:21.522Z,935.89
2022-09-28T02:25:19.394Z,935.87
2022-09-28T02:26:19.409Z,935.85
2022-09-28T02:27:19.419Z,935.84
2022-09-28T02:28:19.434Z,935.81
2022-09-28T02:29:19.448Z,935.75
2022-09-28T02:30:19.461Z,935.75
2022-09-28T02:31:19.523Z,935.77
2022-09-28T02:32:19.487Z,935.78
2022-09-28T02:33:19.499Z,935.82
2022-09-28T02:34:19.515Z,935.83
2022-09-28T02:35:19.526Z,935.82
2022-09-28T02:36:19.538Z,935.85
2022-09-28T02:37:19.572Z,935.83
2022-09-28T02:38:19.565Z,935.85
2022-09-28T02:39:19.577Z,935.85
2022-09-28T02:40:19.670Z,935.87
2022-09-28T02:41:19.603Z,935.87
2022-09-28T02:42:19.621Z,935.79
2022-09-28T02:43:19.630Z,935.75
2022-09-28T02:44:19.645Z,935.73
2022-09-28T02:45:19.670Z,935.71
2022-09-28T02:46:19.741Z,935.65
2022-09-28T02:47:19.681Z,935.59
2022-09-28T02:48:35.922Z,935.64
2022-09-28T02:49:22.065Z,935.65
2022-09-28T02:50:19.721Z,935.70
2022-09-28T02:51:19.733Z,935.68
2022-09-28T02:52:19.747Z,935.75
2022-09-28T02:53:19.779Z,935.81
2022-09-28T02:54:19.773Z,935.81
2022-09-28T02:55:19.788Z,935.82
2022-09-28T02:56:19.798Z,935.86
2022-09-28T02:57:19.813Z,935.88
2022-09-28T02:58:19.824Z,935.92
2022-09-28T02:59:19.837Z,935.89
2022-09-28T03:00:19.849Z,935.87
2022-09-28T03:01:19.883Z,935.88
2022-09-28T03:02:20.008Z,935.88
2022-09-28T03:03:19.897Z,935.82
2022-09-28T03:04:19.903Z,935.82
2022-09-28T03:05:19.917Z,935.79
2022-09-28T03:06:19.930Z,935.75
2022-09-28T03:07:19.944Z,935.76
2022-09-28T03:08:19.956Z,935.73
2022-09-28T03:09:20.000Z,935.75
2022-09-28T03:10:19.982Z,935.72
2022-09-28T03:11:19.995Z,935.73
2022-09-28T03:12:20.006Z,935.72
2022-09-28T03:13:20.023Z,935.73
2022-09-28T03:14:20.034Z,935.72
2022-09-28T03:15:20.050Z,935.72
2022-09-28T03:16:20.159Z,935.68
2022-09-28T03:17:20.073Z,935.67
2022-09-28T03:18:20.085Z,935.63
2022-09-28T03:19:20.099Z,935.61
2022-09-28T03:20:20.111Z,935.61
2022-09-28T03:21:20.124Z,935.60
2022-09-28T03:22:20.138Z,935.59
2022-09-28T03:23:24.740Z,935.59
2022-09-28T03:24:20.162Z,935.54
2022-09-28T03:25:20.196Z,935.54
2022-09-28T03:26:20.188Z,935.54
2022-09-28T03:27:20.204Z,935.59
2022-09-28T03:28:20.219Z,935.57
2022-09-28T03:29:20.228Z,935.60
2022-09-28T03:30:20.244Z,935.57
2022-09-28T03:31:20.292Z,935.59
2022-09-28T03:32:20.266Z,935.57
2022-09-28T03:33:20.283Z,935.58
2022-09-28T03:34:20.295Z,935.58
2022-09-28T03:35:20.307Z,935.57
2022-09-28T03:36:20.320Z,935.56
2022-09-28T03:37:20.331Z,935.57
2022-09-28T03:38:20.346Z,935.61
2022-09-28T03:39:20.363Z,935.59
2022-09-28T03:40:20.439Z,935.60
2022-09-28T03:41:20.404Z,935.59
2022-09-28T03:42:20.397Z,935.61
2022-09-28T03:43:20.412Z,935.58
2022-09-28T03:44:20.423Z,935.58
2022-09-28T03:45:20.438Z,935.54
2022-09-28T03:46:20.501Z,935.56
2022-09-28T03:47:20.461Z,935.60
2022-09-28T03:48:24.025Z,935.59
2022-09-28T03:49:20.487Z,935.62
2022-09-28T03:50:20.501Z,935.63
2022-09-28T03:51:20.517Z,935.63
2022-09-28T03:52:20.526Z,935.63
2022-09-28T03:53:20.541Z,935.63
2022-09-28T03:54:20.569Z,935.63
2022-09-28T03:55:20.566Z,935.67
2022-09-28T03:56:20.579Z,935.69
2022-09-28T03:57:20.613Z,935.72
2022-09-28T03:58:20.604Z,935.74
2022-09-28T03:59:20.616Z,935.76
2022-09-28T04:00:20.632Z,935.77
2022-09-28T04:01:20.702Z,935.77
2022-09-28T04:02:20.719Z,935.79
2022-09-28T04:03:20.668Z,935.78
2022-09-28T04:04:20.684Z,935.74
2022-09-28T04:05:20.695Z,935.70
2022-09-28T04:06:20.813Z,935.68
2022-09-28T04:07:20.721Z,935.71
2022-09-28T04:08:20.735Z,935.63
2022-09-28T04:09:20.749Z,935.62
2022-09-28T04:10:20.762Z,935.61
2022-09-28T04:11:20.774Z,935.62
2022-09-28T04:12:20.785Z,935.57
2022-09-28T04:13:20.820Z,935.57
2022-09-28T04:14:20.813Z,935.56
2022-09-28T04:15:20.825Z,935.58
2022-09-28T04:16:20.907Z,935.57
2022-09-28T04:17:20.852Z,935.56
2022-09-28T04:18:20.865Z,935.58
2022-09-28T04:19:20.877Z,935.57
2022-09-28T04:20:20.893Z,935.59
2022-09-28T04:21:20.902Z,935.65
2022-09-28T04:22:20.917Z,935.68
2022-09-28T04:23:20.928Z,935.75
2022-09-28T04:24:20.941Z,935.72
2022-09-28T04:25:20.958Z,935.80
2022-09-28T04:26:20.979Z,935.78
2022-09-28T04:27:20.981Z,935.83
2022-09-28T04:28:20.993Z,935.83
2022-09-28T04:29:21.250Z,935.82
2022-09-28T04:30:21.019Z,935.86
2022-09-28T04:31:21.074Z,935.77
2022-09-28T04:32:21.045Z,935.78
2022-09-28T04:33:21.058Z,935.78
2022-09-28T04:34:21.077Z,935.76
2022-09-28T04:35:21.084Z,935.73
2022-09-28T04:36:21.098Z,935.67
2022-09-28T04:37:21.111Z,935.65
2022-09-28T04:38:35.806Z,935.63
2022-09-28T04:39:21.135Z,935.65
2022-09-28T04:40:21.193Z,935.63
2022-09-28T04:41:21.162Z,935.61
2022-09-28T04:42:21.174Z,935.63
2022-09-28T04:43:21.186Z,935.62
2022-09-28T04:44:21.201Z,935.63
2022-09-28T04:45:21.240Z,935.65
2022-09-28T04:46:21.225Z,935.68
2022-09-28T04:47:21.238Z,935.67
2022-09-28T04:48:21.252Z,935.64
2022-09-28T04:49:21.265Z,935.63
2022-09-28T04:50:21.279Z,935.59
2022-09-28T04:51:21.289Z,935.55
2022-09-28T04:52:21.303Z,935.52
2022-09-28T04:53:21.319Z,935.47
2022-09-28T04:54:21.332Z,935.43
2022-09-28T04:55:21.342Z,935.44
2022-09-28T04:56:21.359Z,935.42
2022-09-28T04:57:21.367Z,935.39
2022-09-28T04:58:21.383Z,935.32
2022-09-28T04:59:21.393Z,935.32
2022-09-28T05:00:21.407Z,935.31
2022-09-28T05:01:21.590Z,935.25
2022-09-28T05:02:21.542Z,935.18
2022-09-28T05:03:21.445Z,935.14
2022-09-28T05:04:25.827Z,935.13
2022-09-28T05:05:21.471Z,935.14
2022-09-28T05:06:21.483Z,935.16
2022-09-28T05:07:21.497Z,935.17
2022-09-28T05:08:21.509Z,935.23
2022-09-28T05:09:21.524Z,935.21
2022-09-28T05:10:21.536Z,935.23
2022-09-28T05:11:21.548Z,935.28
2022-09-28T05:12:21.566Z,935.28
2022-09-28T05:13:21.576Z,935.26
2022-09-28T05:14:21.589Z,935.28
2022-09-28T05:15:21.599Z,935.25
2022-09-28T05:16:21.690Z,935.24
2022-09-28T05:17:21.649Z,935.20
2022-09-28T05:18:21.640Z,935.23
2022-09-28T05:19:21.651Z,935.26
2022-09-28T05:20:21.664Z,935.22
2022-09-28T05:21:21.677Z,935.24
2022-09-28T05:22:21.692Z,935.18
2022-09-28T05:23:21.703Z,935.16
2022-09-28T05:24:21.716Z,935.12
2022-09-28T05:25:21.732Z,935.06
2022-09-28T05:26:21.742Z,935.09
2022-09-28T05:27:21.753Z,935.03
2022-09-28T05:28:21.769Z,935.04
2022-09-28T05:29:21.784Z,935.01
2022-09-28T05:30:21.795Z,934.97
2022-09-28T05:31:21.846Z,934.98
2022-09-28T05:32:21.820Z,935.00
2022-09-28T05:33:21.850Z,934.98
2022-09-28T05:34:21.846Z,934.99
2022-09-28T05:35:21.860Z,934.98
2022-09-28T05:36:21.872Z,934.99
2022-09-28T05:37:21.885Z,934.99
2022-09-28T05:38:21.897Z,934.99
2022-09-28T05:39:21.908Z,934.99
2022-09-28T05:40:21.992Z,935.00
2022-09-28T05:41:21.935Z,935.01
2022-09-28T05:42:21.948Z,935.04
2022-09-28T05:43:21.962Z,935.04
2022-09-28T05:44:21.974Z,935.07
2022-09-28T05:45:21.987Z,935.05
2022-09-28T05:46:22.068Z,935.09
2022-09-28T05:47:22.012Z,935.04
2022-09-28T05:48:22.033Z,935.03
2022-09-28T05:49:22.060Z,935.03
2022-09-28T05:50:22.053Z,935.04
2022-09-28T05:51:22.064Z,935.00
2022-09-28T05:52:22.075Z,935.00
2022-09-28T05:53:22.088Z,934.98
2022-09-28T05:54:22.103Z,934.96
2022-09-28T05:55:22.118Z,934.98
2022-09-28T05:56:22.228Z,934.98
2022-09-28T05:57:22.142Z,935.00
2022-09-28T05:58:22.154Z,935.02
2022-09-28T05:59:22.167Z,934.99
2022-09-28T06:00:22.182Z,935.01
2022-09-28T06:01:22.309Z,935.02
2022-09-28T06:02:22.283Z,935.03
2022-09-28T06:03:22.232Z,935.07
2022-09-28T06:04:22.247Z,935.08
2022-09-28T06:05:22.272Z,935.11
2022-09-28T06:06:22.269Z,935.09
2022-09-28T06:07:22.279Z,935.15
2022-09-28T06:08:22.289Z,935.20
2022-09-28T06:09:25.760Z,935.17
2022-09-28T06:10:22.310Z,935.21
2022-09-28T06:11:22.319Z,935.22
2022-09-28T06:12:22.335Z,935.20
2022-09-28T06:13:22.346Z,935.26
2022-09-28T06:14:22.376Z,935.28
2022-09-28T06:15:22.372Z,935.27
2022-09-28T06:16:22.411Z,935.31
2022-09-28T06:17:22.398Z,935.27
2022-09-28T06:18:22.411Z,935.31
2022-09-28T06:19:22.422Z,935.28
2022-09-28T06:20:22.438Z,935.29
2022-09-28T06:21:22.487Z,935.29
2022-09-28T06:22:22.464Z,935.30
2022-09-28T06:23:22.484Z,935.32
2022-09-28T06:24:22.495Z,935.33
2022-09-28T06:25:22.501Z,935.29
2022-09-28T06:26:22.513Z,935.30
2022-09-28T06:27:22.532Z,935.28
2022-09-28T06:28:22.542Z,935.33
2022-09-28T06:29:22.553Z,935.30
2022-09-28T06:30:22.600Z,935.29
2022-09-28T06:31:22.722Z,935.30
2022-09-28T06:32:22.591Z,935.31
2022-09-28T06:33:22.604Z,935.28
2022-09-28T06:34:22.616Z,935.29
2022-09-28T06:35:22.630Z,935.30
2022-09-28T06:36:22.644Z,935.29
2022-09-28T06:37:22.672Z,935.24
2022-09-28T06:38:22.666Z,935.26
2022-09-28T06:39:22.678Z,935.22
2022-09-28T06:40:22.769Z,935.21
2022-09-28T06:41:22.707Z,935.20
2022-09-28T06:42:22.718Z,935.21
2022-09-28T06:43:22.732Z,935.18
2022-09-28T06:44:22.743Z,935.21
2022-09-28T06:45:22.759Z,935.24
2022-09-28T06:46:22.823Z,935.28
2022-09-28T06:47:22.781Z,935.28
2022-09-28T06:48:22.796Z,935.28
2022-09-28T06:49:22.811Z,935.27
2022-09-28T06:50:22.823Z,935.27
2022-09-28T06:51:22.833Z,935.30
2022-09-28T06:52:22.846Z,935.32
2022-09-28T06:53:22.876Z,935.33
2022-09-28T06:54:22.875Z,935.29
2022-09-28T06:55:22.890Z,935.31
2022-09-28T06:56:22.900Z,935.30
2022-09-28T06:57:22.910Z,935.33
2022-09-28T06:58:22.922Z,935.36
2022-09-28T06:59:22.939Z,935.41
2022-09-28T07:00:22.949Z,935.43
2022-09-28T07:01:22.974Z,935.40
2022-09-28T07:02:23.097Z,935.44
2022-09-28T07:03:22.991Z,935.41
2022-09-28T07:04:23.002Z,935.48
2022-09-28T07:05:23.012Z,935.46
2022-09-28T07:06:23.125Z,935.45
2022-09-28T07:07:23.039Z,935.43
2022-09-28T07:08:23.051Z,935.41
2022-09-28T07:09:32.196Z,935.40
2022-09-28T07:10:23.076Z,935.42
2022-09-28T07:11:23.092Z,935.44
2022-09-28T07:12:23.101Z,935.46
2022-09-28T07:13:47.619Z,935.49
2022-09-28T07:14:43.085Z,935.46
2022-09-28T07:15:23.139Z,935.53
2022-09-28T07:16:27.079Z,935.46
2022-09-28T07:17:23.223Z,935.48
2022-09-28T07:18:23.203Z,935.50
2022-09-28T07:19:23.191Z,935.48
2022-09-28T07:20:23.204Z,935.46
2022-09-28T07:21:29.734Z,935.47
2022-09-28T07:22:37.067Z,935.46
2022-09-28T07:23:23.242Z,935.50
2022-09-28T07:24:23.254Z,935.48
2022-09-28T07:25:23.284Z,935.49
2022-09-28T07:26:24.543Z,935.51
2022-09-28T07:27:28.154Z,935.48
2022-09-28T07:28:23.307Z,935.49
2022-09-28T07:29:23.318Z,935.49
2022-09-28T07:30:23.387Z,935.53
2022-09-28T07:31:23.382Z,935.54
2022-09-28T07:32:23.395Z,935.57
2022-09-28T07:33:23.369Z,935.64
2022-09-28T07:34:23.391Z,935.65
2022-09-28T07:35:23.395Z,935.65
2022-09-28T07:36:23.408Z,935.69
2022-09-28T07:37:23.421Z,935.69
2022-09-28T07:38:23.436Z,935.68
2022-09-28T07:39:23.446Z,935.71
2022-09-28T07:40:23.507Z,935.73
2022-09-28T07:41:23.492Z,935.70
2022-09-28T07:42:23.489Z,935.69
2022-09-28T07:43:23.500Z,935.69
2022-09-28T07:44:23.509Z,935.67
2022-09-28T07:45:23.521Z,935.67
2022-09-28T07:46:23.585Z,935.69
2022-09-28T07:47:23.546Z,935.69
2022-09-28T07:48:23.562Z,935.68
2022-09-28T07:49:23.572Z,935.69
2022-09-28T07:50:23.672Z,935.65
2022-09-28T07:51:23.596Z,935.63
2022-09-28T07:52:23.614Z,935.67
2022-09-28T07:53:23.626Z,935.64
2022-09-28T07:54:23.638Z,935.65
2022-09-28T07:55:23.654Z,935.64
2022-09-28T07:56:23.663Z,935.68
2022-09-28T07:57:23.717Z,935.64
2022-09-28T07:58:23.689Z,935.67
2022-09-28T07:59:23.701Z,935.70
2022-09-28T08:00:23.770Z,935.71
2022-09-28T08:01:23.824Z,935.68
2022-09-28T08:02:23.780Z,935.74
2022-09-28T08:03:23.755Z,935.76
2022-09-28T08:04:23.768Z,935.75
2022-09-28T08:05:23.779Z,935.71
2022-09-28T08:06:23.790Z,935.74
2022-09-28T08:07:24.379Z,935.73
2022-09-28T08:08:23.814Z,935.72
2022-09-28T08:09:23.828Z,935.72
2022-09-28T08:10:23.911Z,935.73
2022-09-28T08:11:23.853Z,935.73
2022-09-28T08:12:23.866Z,935.72
2022-09-28T08:13:27.131Z,935.79
2022-09-28T08:14:23.890Z,935.77
2022-09-28T08:15:23.903Z,935.81
2022-09-28T08:16:24.042Z,935.87
2022-09-28T08:17:23.935Z,935.84
2022-09-28T08:18:23.943Z,935.89
2022-09-28T08:19:23.955Z,935.91
2022-09-28T08:20:23.968Z,935.92
2022-09-28T08:21:23.980Z,935.95
2022-09-28T08:22:23.995Z,935.97
2022-09-28T08:23:24.018Z,935.97
2022-09-28T08:24:24.024Z,935.99
2022-09-28T08:25:24.037Z,936.01
2022-09-28T08:26:24.042Z,936.03
2022-09-28T08:27:24.060Z,936.03
2022-09-28T08:28:24.071Z,936.05
2022-09-28T08:29:24.101Z,936.06
2022-09-28T08:30:24.254Z,936.07
2022-09-28T08:31:24.156Z,936.13
2022-09-28T08:32:24.119Z,936.13
2022-09-28T08:33:24.131Z,936.16
2022-09-28T08:34:24.146Z,936.21
2022-09-28T08:35:24.156Z,936.19
2022-09-28T08:36:24.168Z,936.23
2022-09-28T08:37:24.181Z,936.26
2022-09-28T08:38:24.195Z,936.27
2022-09-28T08:39:24.209Z,936.27
2022-09-28T08:40:24.291Z,936.29
2022-09-28T08:41:24.235Z,936.35
2022-09-28T08:42:24.247Z,936.33
2022-09-28T08:43:24.259Z,936.35
2022-09-28T08:44:24.530Z,936.36
2022-09-28T08:45:24.401Z,936.35
2022-09-28T08:46:26.952Z,936.35
2022-09-28T08:47:24.309Z,936.36
2022-09-28T08:48:24.323Z,936.36
2022-09-28T08:49:25.657Z,936.42
2022-09-28T08:50:24.351Z,936.41
2022-09-28T08:51:24.396Z,936.42
2022-09-28T08:52:24.372Z,936.43
2022-09-28T08:53:24.385Z,936.42
2022-09-28T08:54:24.400Z,936.48
2022-09-28T08:55:24.414Z,936.48
2022-09-28T08:56:24.430Z,936.49
2022-09-28T08:57:24.437Z,936.51
2022-09-28T08:58:24.451Z,936.48
2022-09-28T08:59:24.461Z,936.54
2022-09-28T09:00:24.473Z,936.52
2022-09-28T09:01:24.530Z,936.54
2022-09-28T09:02:24.560Z,936.54
2022-09-28T09:03:24.512Z,936.57
2022-09-28T09:04:24.529Z,936.58
2022-09-28T09:05:24.543Z,936.60
2022-09-28T09:06:24.554Z,936.61
2022-09-28T09:07:24.567Z,936.64
2022-09-28T09:08:24.580Z,936.63
2022-09-28T09:09:24.593Z,936.66
2022-09-28T09:10:24.606Z,936.68
2022-09-28T09:11:24.617Z,936.69
2022-09-28T09:12:24.631Z,936.71
2022-09-28T09:13:24.644Z,936.73
2022-09-28T09:14:24.652Z,936.74
2022-09-28T09:15:24.663Z,936.75
2022-09-28T09:16:24.746Z,936.79
2022-09-28T09:17:24.727Z,936.79
2022-09-28T09:18:24.905Z,936.78
2022-09-28T09:19:24.713Z,936.85
2022-09-28T09:20:24.727Z,936.87
2022-09-28T09:21:24.739Z,936.88
2022-09-28T09:22:24.752Z,936.87
2022-09-28T09:23:24.766Z,936.88
2022-09-28T09:24:24.777Z,936.88
2022-09-28T09:25:24.789Z,936.91
2022-09-28T09:26:26.240Z,936.96
2022-09-28T09:27:24.821Z,936.92
2022-09-28T09:28:24.831Z,936.93
2022-09-28T09:29:24.841Z,936.91
2022-09-28T09:30:27.192Z,936.94
2022-09-28T09:31:24.899Z,936.90
2022-09-28T09:32:24.881Z,936.89
2022-09-28T09:33:24.910Z,936.90
2022-09-28T09:34:24.906Z,936.95
2022-09-28T09:35:29.586Z,936.95
2022-09-28T09:36:24.931Z,936.98
2022-09-28T09:37:24.943Z,937.03
2022-09-28T09:38:24.959Z,937.05
2022-09-28T09:39:24.971Z,937.00
2022-09-28T09:40:25.104Z,937.07
2022-09-28T09:41:24.993Z,937.10
2022-09-28T09:42:25.007Z,937.12
2022-09-28T09:43:28.017Z,937.14
2022-09-28T09:44:25.031Z,937.12
2022-09-28T09:45:25.043Z,937.15
2022-09-28T09:46:25.109Z,937.18
2022-09-28T09:47:25.068Z,937.15
2022-09-28T09:48:25.096Z,937.14
2022-09-28T09:49:25.115Z,937.18
2022-09-28T09:50:25.111Z,937.19
2022-09-28T09:51:25.119Z,937.21
2022-09-28T09:52:25.167Z,937.16
2022-09-28T09:53:25.145Z,937.12
2022-09-28T09:54:25.156Z,937.10
2022-09-28T09:55:29.841Z,937.09
2022-09-28T09:56:25.185Z,937.06
2022-09-28T09:57:25.196Z,937.05
2022-09-28T09:58:25.207Z,937.01
2022-09-28T09:59:25.224Z,937.03
2022-09-28T10:00:25.232Z,937.04
2022-09-28T10:01:25.310Z,937.03
2022-09-28T10:02:25.312Z,937.02
2022-09-28T10:03:25.272Z,937.05
2022-09-28T10:04:25.285Z,937.06
2022-09-28T10:05:25.317Z,937.11
2022-09-28T10:06:25.309Z,937.11
2022-09-28T10:07:25.322Z,937.15
2022-09-28T10:08:25.334Z,937.19
2022-09-28T10:09:25.348Z,937.21
2022-09-28T10:10:25.361Z,937.24
2022-09-28T10:11:25.372Z,937.21
2022-09-28T10:12:25.385Z,937.22
2022-09-28T10:13:25.398Z,937.20
2022-09-28T10:14:25.411Z,937.18
2022-09-28T10:15:25.422Z,937.08
2022-09-28T10:16:25.492Z,937.07
2022-09-28T10:17:25.447Z,937.03
2022-09-28T10:18:25.462Z,936.98
2022-09-28T10:19:25.473Z,936.96
2022-09-28T10:20:25.493Z,936.96
2022-09-28T10:21:25.549Z,937.02
2022-09-28T10:22:25.511Z,937.07
2022-09-28T10:23:25.522Z,937.11
2022-09-28T10:24:25.536Z,937.17
2022-09-28T10:25:25.551Z,937.19
2022-09-28T10:26:25.654Z,937.18
2022-09-28T10:27:25.575Z,937.25
2022-09-28T10:28:25.588Z,937.20
2022-09-28T10:29:25.602Z,937.24
2022-09-28T10:30:25.614Z,937.26
2022-09-28T10:31:25.627Z,937.20
2022-09-28T10:32:25.638Z,937.22
2022-09-28T10:33:25.652Z,937.27
2022-09-28T10:34:25.663Z,937.24
2022-09-28T10:35:25.673Z,937.24
2022-09-28T10:36:25.689Z,937.24
2022-09-28T10:37:25.722Z,937.23
2022-09-28T10:38:25.714Z,937.26
2022-09-28T10:39:25.727Z,937.26
2022-09-28T10:40:25.788Z,937.31
2022-09-28T10:41:25.750Z,937.34
2022-09-28T10:42:25.766Z,937.36
2022-09-28T10:43:25.778Z,937.39
2022-09-28T10:44:25.789Z,937.41
2022-09-28T10:45:25.801Z,937.45
2022-09-28T10:46:25.849Z,937.45
2022-09-28T10:47:25.831Z,937.47
2022-09-28T10:48:25.840Z,937.48
2022-09-28T10:49:25.852Z,937.47
2022-09-28T10:50:25.864Z,937.51
2022-09-28T10:51:25.877Z,937.47
2022-09-28T10:52:25.889Z,937.46
2022-09-28T10:53:25.919Z,937.47
2022-09-28T10:54:25.915Z,937.47
2022-09-28T10:55:25.933Z,937.50
2022-09-28T10:56:25.941Z,937.50
2022-09-28T10:57:25.954Z,937.54
2022-09-28T10:58:25.966Z,937.57
2022-09-28T10:59:25.979Z,937.54
2022-09-28T11:00:25.990Z,937.57
2022-09-28T11:01:26.084Z,937.57
2022-09-28T11:02:26.131Z,937.58
2022-09-28T11:03:26.029Z,937.63
2022-09-28T11:04:26.041Z,937.61
2022-09-28T11:05:26.055Z,937.63
2022-09-28T11:06:26.068Z,937.68
2022-09-28T11:07:26.083Z,937.68
2022-09-28T11:08:26.091Z,937.64
2022-09-28T11:09:29.773Z,937.66
2022-09-28T11:10:26.120Z,937.66
2022-09-28T11:11:26.132Z,937.64
2022-09-28T11:12:26.147Z,937.64
2022-09-28T11:13:26.154Z,937.61
2022-09-28T11:14:26.167Z,937.62
2022-09-28T11:15:26.178Z,937.62
2022-09-28T11:16:26.340Z,937.57
2022-09-28T11:17:26.206Z,937.63
2022-09-28T11:18:26.217Z,937.61
2022-09-28T11:19:26.230Z,937.59
2022-09-28T11:20:28.123Z,937.58
2022-09-28T11:21:26.257Z,937.53
2022-09-28T11:22:26.281Z,937.56
2022-09-28T11:23:26.281Z,937.51
2022-09-28T11:24:26.821Z,937.57
2022-09-28T11:25:26.341Z,937.55
2022-09-28T11:26:26.324Z,937.53
2022-09-28T11:27:26.330Z,937.56
2022-09-28T11:28:26.353Z,937.57
2022-09-28T11:29:26.361Z,937.55
2022-09-28T11:30:26.428Z,937.58
2022-09-28T11:31:26.380Z,937.60
2022-09-28T11:32:26.395Z,937.60
2022-09-28T11:33:26.408Z,937.62
2022-09-28T11:34:41.571Z,937.67
2022-09-28T11:35:26.435Z,937.67
2022-09-28T11:36:26.726Z,937.68
2022-09-28T11:37:26.458Z,937.72
2022-09-28T11:38:26.676Z,937.72
2022-09-28T11:39:26.483Z,937.70
2022-09-28T11:40:26.539Z,937.73
2022-09-28T11:41:26.532Z,937.74
2022-09-28T11:42:26.522Z,937.74
2022-09-28T11:43:26.669Z,937.76
2022-09-28T11:44:29.511Z,937.71
2022-09-28T11:45:26.557Z,937.74
2022-09-28T11:46:26.630Z,937.72
2022-09-28T11:47:26.584Z,937.72
2022-09-28T11:48:26.600Z,937.67
2022-09-28T11:49:26.608Z,937.66
2022-09-28T11:50:26.724Z,937.61
2022-09-28T11:51:26.657Z,937.61
2022-09-28T11:52:26.647Z,937.57
2022-09-28T11:53:26.659Z,937.62
2022-09-28T11:54:26.673Z,937.60
2022-09-28T11:55:26.685Z,937.62
2022-09-28T11:56:26.698Z,937.67
2022-09-28T11:57:26.728Z,937.69
2022-09-28T11:58:26.724Z,937.69
2022-09-28T11:59:26.736Z,937.77
2022-09-28T12:00:26.749Z,937.77
2022-09-28T12:01:26.763Z,937.81
2022-09-28T12:02:26.969Z,937.78
2022-09-28T12:03:26.967Z,937.79
2022-09-28T12:04:26.801Z,937.83
2022-09-28T12:05:26.810Z,937.85
2022-09-28T12:06:26.826Z,937.85
2022-09-28T12:07:26.839Z,937.87
2022-09-28T12:08:26.851Z,937.87
2022-09-28T12:09:26.863Z,937.86
2022-09-28T12:10:26.877Z,937.88
2022-09-28T12:11:26.894Z,937.88
2022-09-28T12:12:27.475Z,937.87
2022-09-28T12:13:26.932Z,937.89
2022-09-28T12:14:26.997Z,937.85
2022-09-28T12:15:26.938Z,937.85
2022-09-28T12:16:53.714Z,937.81
2022-09-28T12:17:27.209Z,937.78
2022-09-28T12:18:26.979Z,937.80
2022-09-28T12:19:26.988Z,937.79
2022-09-28T12:20:27.093Z,937.84
2022-09-28T12:21:27.014Z,937.85
2022-09-28T12:22:27.030Z,937.80
2022-09-28T12:23:27.038Z,937.84
2022-09-28T12:24:27.134Z,937.82
2022-09-28T12:25:27.064Z,937.80
2022-09-28T12:26:27.086Z,937.79
2022-09-28T12:27:27.090Z,937.82
2022-09-28T12:28:27.251Z,937.82